createdAt,value
2018-10-11T00:00:28.498Z,26.00
2018-10-11T00:02:57.463Z,25.70
2018-10-11T00:05:26.422Z,23.60
2018-10-11T00:07:55.235Z,27.90
2018-10-11T00:10:24.072Z,26.03
2018-10-11T00:12:52.899Z,29.20
2018-10-11T00:15:21.758Z,29.07
2018-10-11T00:17:50.606Z,24.00
2018-10-11T00:20:19.457Z,28.73
2018-10-11T00:22:48.266Z,26.50
2018-10-11T00:25:17.282Z,25.90
2018-10-11T00:27:46.082Z,25.83
2018-10-11T00:30:14.988Z,27.97
2018-10-11T00:32:43.921Z,29.93
2018-10-11T00:35:12.793Z,28.80
2018-10-11T00:37:41.665Z,26.70
2018-10-11T00:40:11.643Z,25.87
2018-10-11T00:42:40.814Z,24.20
2018-10-11T00:45:09.849Z,29.00
2018-10-11T00:47:38.825Z,28.60
2018-10-11T00:50:07.649Z,29.87
2018-10-11T00:52:37.184Z,25.77
2018-10-11T00:55:06.017Z,28.90
2018-10-11T00:57:34.836Z,24.43
2018-10-11T01:00:03.738Z,28.80
2018-10-11T01:02:32.530Z,25.77
2018-10-11T01:05:01.383Z,23.77
2018-10-11T01:07:30.241Z,24.83
2018-10-11T01:09:59.103Z,25.10
2018-10-11T01:12:28.032Z,26.37
2018-10-11T01:14:56.881Z,25.07
2018-10-11T01:17:25.774Z,27.17
2018-10-11T01:19:54.627Z,26.00
2018-10-11T01:22:23.454Z,23.73
2018-10-11T01:24:52.352Z,28.97
2018-10-11T01:27:21.171Z,28.23
2018-10-11T01:29:50.218Z,25.13
2018-10-11T01:32:18.917Z,27.90
2018-10-11T01:34:47.739Z,25.67
2018-10-11T01:37:16.529Z,31.30
2018-10-11T01:39:45.346Z,25.00
2018-10-11T01:42:14.152Z,26.90
2018-10-11T01:44:42.965Z,25.50
2018-10-11T01:47:11.927Z,28.93
2018-10-11T01:49:40.755Z,26.90
2018-10-11T01:52:09.588Z,29.17
2018-10-11T01:54:39.154Z,27.23
2018-10-11T01:57:08.491Z,25.03
2018-10-11T01:59:37.284Z,22.30
2018-10-11T02:02:06.098Z,25.80
2018-10-11T02:04:34.998Z,22.17
2018-10-11T02:07:03.817Z,24.60
2018-10-11T02:09:32.713Z,26.50
2018-10-11T02:12:01.449Z,25.83
2018-10-11T02:14:30.233Z,29.63
2018-10-11T02:16:59.105Z,29.60
2018-10-11T02:19:27.899Z,25.97
2018-10-11T02:21:56.885Z,30.53
2018-10-11T02:24:25.676Z,26.33
2018-10-11T02:26:54.634Z,24.93
2018-10-11T02:29:23.446Z,31.50
2018-10-11T02:31:52.366Z,26.37
2018-10-11T02:34:21.193Z,26.20
2018-10-11T02:36:50.075Z,27.90
2018-10-11T02:39:19.007Z,29.17
2018-10-11T02:41:47.890Z,27.77
2018-10-11T02:44:16.682Z,28.40
2018-10-11T02:46:45.595Z,27.77
2018-10-11T02:49:14.410Z,28.40
2018-10-11T02:51:43.261Z,26.10
2018-10-11T02:54:12.149Z,25.13
2018-10-11T02:56:40.982Z,27.47
2018-10-11T02:59:21.006Z,25.67
2018-10-11T03:01:49.830Z,26.90
2018-10-11T03:04:18.762Z,23.30
2018-10-11T03:06:47.661Z,25.23
2018-10-11T03:09:17.299Z,23.43
2018-10-11T03:11:46.242Z,23.93
2018-10-11T03:14:15.172Z,27.50
2018-10-11T03:16:44.005Z,28.37
2018-10-11T03:19:12.883Z,24.20
2018-10-11T03:21:41.700Z,24.20
2018-10-11T03:24:10.481Z,26.97
2018-10-11T03:26:39.310Z,28.90
2018-10-11T03:29:08.197Z,24.30
2018-10-11T03:31:37.092Z,28.40
2018-10-11T03:34:05.988Z,28.43
2018-10-11T03:36:34.879Z,29.73
2018-10-11T03:39:04.388Z,23.90
2018-10-11T03:41:33.186Z,25.77
2018-10-11T03:44:01.982Z,25.40
2018-10-11T03:46:30.916Z,26.10
2018-10-11T03:48:59.815Z,25.20
2018-10-11T03:51:28.895Z,24.37
2018-10-11T03:53:58.256Z,23.20
2018-10-11T03:56:27.362Z,24.40
2018-10-11T03:58:56.229Z,26.67
2018-10-11T04:01:25.185Z,30.80
2018-10-11T04:03:54.122Z,27.07
2018-10-11T04:06:22.956Z,24.57
2018-10-11T04:08:51.734Z,26.53
2018-10-11T04:11:20.518Z,26.80
2018-10-11T04:13:49.328Z,28.47
2018-10-11T04:16:18.121Z,26.30
2018-10-11T04:18:47.056Z,24.37
2018-10-11T04:21:15.874Z,25.40
2018-10-11T04:23:44.682Z,23.37
2018-10-11T04:26:13.458Z,28.27
2018-10-11T04:28:42.280Z,25.40
2018-10-11T04:31:11.154Z,26.70
2018-10-11T04:33:39.961Z,27.67
2018-10-11T04:36:08.888Z,26.40
2018-10-11T04:38:37.633Z,25.67
2018-10-11T04:41:06.606Z,24.77
2018-10-11T04:43:35.405Z,26.17
2018-10-11T04:46:04.190Z,25.00
2018-10-11T04:48:32.994Z,27.43
2018-10-11T04:51:01.858Z,30.77
2018-10-11T04:53:30.678Z,24.10
2018-10-11T04:55:59.468Z,23.90
2018-10-11T04:58:28.298Z,24.47
2018-10-11T05:00:57.130Z,26.90
2018-10-11T05:03:26.018Z,21.60
2018-10-11T05:05:54.806Z,27.60
2018-10-11T05:08:23.645Z,24.03
2018-10-11T05:10:52.438Z,26.30
2018-10-11T05:13:30.159Z,24.30
2018-10-11T05:15:58.975Z,24.87
2018-10-11T05:18:27.785Z,28.60
2018-10-11T05:20:56.574Z,27.00
2018-10-11T05:23:25.663Z,26.80
2018-10-11T05:25:54.599Z,29.03
2018-10-11T05:28:29.962Z,26.07
2018-10-11T05:30:58.765Z,26.13
2018-10-11T05:33:28.670Z,23.73
2018-10-11T05:35:58.095Z,21.70
2018-10-11T05:38:27.419Z,27.47
2018-10-11T05:40:56.752Z,24.60
2018-10-11T05:43:26.665Z,24.10
2018-10-11T05:45:58.135Z,27.17
2018-10-11T05:48:29.292Z,22.37
2018-10-11T05:50:59.705Z,29.10
2018-10-11T05:53:29.874Z,25.27
2018-10-11T05:55:59.226Z,23.50
2018-10-11T05:58:29.067Z,25.10
2018-10-11T06:00:58.101Z,25.63
2018-10-11T06:03:27.003Z,24.60
2018-10-11T06:05:55.807Z,23.53
2018-10-11T06:08:24.710Z,26.33
2018-10-11T06:10:53.565Z,21.50
2018-10-11T06:13:22.500Z,24.73
2018-10-11T06:15:51.304Z,19.70
2018-10-11T06:18:20.116Z,22.27
2018-10-11T06:20:48.940Z,22.63
2018-10-11T06:23:17.753Z,22.80
2018-10-11T06:25:46.630Z,24.20
2018-10-11T06:28:15.409Z,28.53
2018-10-11T06:30:44.274Z,20.33
2018-10-11T06:33:13.134Z,25.40
2018-10-11T06:35:42.063Z,22.10
2018-10-11T06:38:10.824Z,22.00
2018-10-11T06:40:39.650Z,22.10
2018-10-11T06:43:08.462Z,21.37
2018-10-11T06:45:37.356Z,21.13
2018-10-11T06:48:08.248Z,20.50
2018-10-11T06:50:37.140Z,23.23
2018-10-11T06:53:06.297Z,24.33
2018-10-11T06:55:35.129Z,21.83
2018-10-11T06:58:03.950Z,22.50
2018-10-11T07:00:32.835Z,22.50
2018-10-11T07:03:01.721Z,25.97
2018-10-11T07:05:30.665Z,19.60
2018-10-11T07:07:59.710Z,18.50
2018-10-11T07:10:28.714Z,21.40
2018-10-11T07:12:57.507Z,23.10
2018-10-11T07:15:26.382Z,20.60
2018-10-11T07:17:55.173Z,19.87
2018-10-11T07:20:24.046Z,20.20
2018-10-11T07:22:52.967Z,22.53
2018-10-11T07:25:21.774Z,18.53
2018-10-11T07:27:50.633Z,20.97
2018-10-11T07:30:19.430Z,23.50
2018-10-11T07:32:48.227Z,21.40
2018-10-11T07:35:17.411Z,20.80
2018-10-11T07:37:46.178Z,21.60
2018-10-11T07:40:15.042Z,19.17
2018-10-11T07:42:43.896Z,20.63
2018-10-11T07:45:12.778Z,22.77
2018-10-11T07:47:41.897Z,21.27
2018-10-11T07:50:10.701Z,17.07
2018-10-11T07:52:39.542Z,20.90
2018-10-11T07:55:08.365Z,16.93
2018-10-11T07:57:37.253Z,15.17
2018-10-11T08:00:06.332Z,17.47
2018-10-11T08:02:35.118Z,17.30
2018-10-11T08:05:03.948Z,19.90
2018-10-11T08:07:32.778Z,19.00
2018-10-11T08:10:01.594Z,16.23
2018-10-11T08:12:30.400Z,16.90
2018-10-11T08:14:59.219Z,16.10
2018-10-11T08:17:28.582Z,19.70
2018-10-11T08:19:57.132Z,15.07
2018-10-11T08:22:25.884Z,15.33
2018-10-11T08:24:54.803Z,18.60
2018-10-11T08:27:23.703Z,16.40
2018-10-11T08:29:52.490Z,15.53
2018-10-11T08:32:21.384Z,14.37
2018-10-11T08:34:50.195Z,16.80
2018-10-11T08:37:19.219Z,17.07
2018-10-11T08:39:48.035Z,15.37
2018-10-11T08:42:16.868Z,14.40
2018-10-11T08:44:45.817Z,15.17
2018-10-11T08:47:14.653Z,15.10
2018-10-11T08:49:43.446Z,14.20
2018-10-11T08:52:12.258Z,15.03
2018-10-11T08:54:44.070Z,18.30
2018-10-11T08:57:12.862Z,16.53
2018-10-11T08:59:41.698Z,16.80
2018-10-11T09:02:10.482Z,14.50
2018-10-11T09:04:39.251Z,14.20
2018-10-11T09:07:08.291Z,15.70
2018-10-11T09:09:37.239Z,17.47
2018-10-11T09:12:06.022Z,16.17
2018-10-11T09:14:34.818Z,15.23
2018-10-11T09:17:03.609Z,16.27
2018-10-11T09:19:32.598Z,14.80
2018-10-11T09:22:01.817Z,15.73
2018-10-11T09:24:30.935Z,14.23
2018-10-11T09:26:59.943Z,16.10
2018-10-11T09:29:28.726Z,15.03
2018-10-11T09:31:57.828Z,15.63
2018-10-11T09:34:26.566Z,16.17
2018-10-11T09:36:55.623Z,16.20
2018-10-11T09:39:24.397Z,14.37
2018-10-11T09:41:53.275Z,15.10
2018-10-11T09:44:22.188Z,19.17
2018-10-11T09:46:51.066Z,13.60
2018-10-11T09:49:20.591Z,13.83
2018-10-11T09:51:49.549Z,14.43
2018-10-11T09:54:18.419Z,14.27
2018-10-11T09:57:26.089Z,13.47
2018-10-11T09:59:55.269Z,13.17
2018-10-11T10:02:24.901Z,15.57
2018-10-11T10:04:55.282Z,13.23
2018-10-11T10:07:24.098Z,13.67
2018-10-11T10:09:53.096Z,13.30
2018-10-11T10:12:22.533Z,13.83
2018-10-11T10:14:51.705Z,14.30
2018-10-11T10:17:20.864Z,13.83
2018-10-11T10:19:49.667Z,13.20
2018-10-11T10:22:18.493Z,15.80
2018-10-11T10:24:47.301Z,13.93
2018-10-11T10:27:16.108Z,14.60
2018-10-11T10:29:45.011Z,13.60
2018-10-11T10:32:13.825Z,13.30
2018-10-11T10:34:42.675Z,13.17
2018-10-11T10:37:11.483Z,18.13
2018-10-11T10:39:40.362Z,13.80
2018-10-11T10:42:09.167Z,12.73
2018-10-11T10:44:38.036Z,12.30
2018-10-11T10:47:06.882Z,17.07
2018-10-11T10:49:35.839Z,14.63
2018-10-11T10:52:04.646Z,13.77
2018-10-11T10:54:34.560Z,12.47
2018-10-11T10:57:03.937Z,12.40
2018-10-11T10:59:32.830Z,13.13
2018-10-11T11:02:01.613Z,13.33
2018-10-11T11:04:30.426Z,13.63
2018-10-11T11:06:59.330Z,12.77
2018-10-11T11:09:28.185Z,13.47
2018-10-11T11:11:57.453Z,12.00
2018-10-11T11:14:26.330Z,14.17
2018-10-11T11:16:55.126Z,13.93
2018-10-11T11:19:23.989Z,12.13
2018-10-11T11:21:53.294Z,13.90
2018-10-11T11:24:22.109Z,13.57
2018-10-11T11:26:50.907Z,13.23
2018-10-11T11:29:19.774Z,13.70
2018-10-11T11:31:48.620Z,13.17
2018-10-11T11:34:17.425Z,13.37
2018-10-11T11:36:46.254Z,15.13
2018-10-11T11:39:15.091Z,12.43
2018-10-11T11:41:43.876Z,16.27
2018-10-11T11:44:12.723Z,12.87
2018-10-11T11:46:41.559Z,12.90
2018-10-11T11:49:10.398Z,18.27
2018-10-11T11:51:39.200Z,14.00
2018-10-11T11:54:13.465Z,13.53
2018-10-11T11:56:42.241Z,12.83
2018-10-11T11:59:11.136Z,12.80
2018-10-11T12:01:39.943Z,13.27
2018-10-11T12:04:08.870Z,13.50
2018-10-11T12:06:37.698Z,13.30
2018-10-11T12:09:09.230Z,13.43
2018-10-11T12:11:38.122Z,15.50
2018-10-11T12:14:07.422Z,14.60
2018-10-11T12:16:36.451Z,13.67
2018-10-11T12:19:05.814Z,13.20
2018-10-11T12:21:34.660Z,13.13
2018-10-11T12:24:03.457Z,13.07
2018-10-11T12:26:32.370Z,14.50
2018-10-11T12:29:01.337Z,12.23
2018-10-11T12:31:30.180Z,13.97
2018-10-11T12:33:59.296Z,13.30
2018-10-11T12:36:28.649Z,12.47
2018-10-11T12:38:57.438Z,12.50
2018-10-11T12:41:26.386Z,13.27
2018-10-11T12:43:55.193Z,13.27
2018-10-11T12:46:24.029Z,12.00
2018-10-11T12:48:52.814Z,14.10
2018-10-11T12:51:21.638Z,13.77
2018-10-11T12:53:50.478Z,12.90
2018-10-11T12:56:19.457Z,13.13
2018-10-11T12:58:48.208Z,11.30
2018-10-11T13:01:19.849Z,13.90
2018-10-11T13:03:45.844Z,12.90
2018-10-11T13:06:14.723Z,13.10
2018-10-11T13:08:43.526Z,12.13
2018-10-11T13:11:12.426Z,13.00
2018-10-11T13:13:44.585Z,11.63
2018-10-11T13:16:10.155Z,15.67
2018-10-11T13:18:39.044Z,13.63
2018-10-11T13:21:07.891Z,12.80
2018-10-11T13:23:36.669Z,11.37
2018-10-11T13:26:05.477Z,11.67
2018-10-11T13:28:34.281Z,13.70
2018-10-11T13:31:03.147Z,12.87
2018-10-11T13:33:31.972Z,12.60
2018-10-11T13:36:00.788Z,11.77
2018-10-11T13:38:29.593Z,11.97
2018-10-11T13:41:03.080Z,11.20
2018-10-11T13:43:27.394Z,12.27
2018-10-11T13:46:00.109Z,12.03
2018-10-11T13:48:25.486Z,12.47
2018-10-11T13:50:54.361Z,10.60
2018-10-11T13:53:24.798Z,12.43
2018-10-11T13:55:57.683Z,10.80
2018-10-11T13:58:23.306Z,11.50
2018-10-11T14:00:52.118Z,11.23
2018-10-11T14:03:20.984Z,11.90
2018-10-11T14:05:49.929Z,11.37
2018-10-11T14:08:18.839Z,11.27
2018-10-11T14:10:48.528Z,10.80
2018-10-11T14:13:19.830Z,11.07
2018-10-11T14:15:46.778Z,10.93
2018-10-11T14:18:16.313Z,10.23
2018-10-11T14:20:45.452Z,11.83
2018-10-11T14:23:14.347Z,11.00
2018-10-11T14:25:43.123Z,10.60
2018-10-11T14:28:12.020Z,11.83
2018-10-11T14:30:40.818Z,10.20
2018-10-11T14:33:09.601Z,11.83
2018-10-11T14:35:38.414Z,12.30
2018-10-11T14:38:07.214Z,10.63
2018-10-11T14:40:36.090Z,10.27
2018-10-11T14:43:05.124Z,10.60
2018-10-11T14:45:33.964Z,11.23
2018-10-11T14:48:02.824Z,10.30
2018-10-11T14:50:31.575Z,10.03
2018-10-11T14:53:00.368Z,13.60
2018-10-11T14:55:29.239Z,12.03
2018-10-11T14:57:58.042Z,10.80
2018-10-11T15:00:26.830Z,11.07
2018-10-11T15:02:55.749Z,10.93
2018-10-11T15:05:24.533Z,11.10
2018-10-11T15:07:53.304Z,10.80
2018-10-11T15:10:22.228Z,11.00
2018-10-11T15:12:51.026Z,11.93
2018-10-11T15:15:19.826Z,11.50
2018-10-11T15:17:48.667Z,11.57
2018-10-11T15:20:17.559Z,12.17
2018-10-11T15:22:46.391Z,11.43
2018-10-11T15:25:15.179Z,11.00
2018-10-11T15:27:43.977Z,11.30
2018-10-11T15:30:12.805Z,12.57
2018-10-11T15:32:41.627Z,11.73
2018-10-11T15:35:10.494Z,11.33
2018-10-11T15:37:39.338Z,11.30
2018-10-11T15:40:08.870Z,10.80
2018-10-11T15:42:38.514Z,12.13
2018-10-11T15:45:09.049Z,10.40
2018-10-11T15:47:38.049Z,11.67
2018-10-11T15:50:07.033Z,11.33
2018-10-11T15:52:35.932Z,11.73
2018-10-11T15:55:04.826Z,12.13
2018-10-11T15:57:33.695Z,12.07
2018-10-11T16:00:02.494Z,13.47
2018-10-11T16:02:31.368Z,10.77
2018-10-11T16:05:00.196Z,12.80
2018-10-11T16:07:29.053Z,11.60
2018-10-11T16:09:57.878Z,10.50
2018-10-11T16:12:26.714Z,11.27
2018-10-11T16:14:56.443Z,11.37
2018-10-11T16:17:25.336Z,12.40
2018-10-11T16:19:54.128Z,11.40
2018-10-11T16:22:22.958Z,13.63
2018-10-11T16:24:51.859Z,12.90
2018-10-11T16:27:20.648Z,11.63
2018-10-11T16:29:49.612Z,13.20
2018-10-11T16:32:18.489Z,11.73
2018-10-11T16:34:47.238Z,13.47
2018-10-11T16:37:16.079Z,11.40
2018-10-11T16:39:44.918Z,12.73
2018-10-11T16:42:16.710Z,12.43
2018-10-11T16:44:45.933Z,14.00
2018-10-11T16:47:14.727Z,13.60
2018-10-11T16:49:43.723Z,11.97
2018-10-11T16:52:12.424Z,11.40
2018-10-11T16:54:43.171Z,11.43
2018-10-11T16:57:13.226Z,10.07
2018-10-11T16:59:42.150Z,11.70
2018-10-11T17:02:11.148Z,12.80
2018-10-11T17:04:40.090Z,12.80
2018-10-11T17:07:08.929Z,12.93
2018-10-11T17:09:37.796Z,11.03
2018-10-11T17:12:06.730Z,12.40
2018-10-11T17:14:35.580Z,13.17
2018-10-11T17:17:05.681Z,12.50
2018-10-11T17:19:34.514Z,12.50
2018-10-11T17:22:11.629Z,13.07
2018-10-11T17:24:40.485Z,14.93
2018-10-11T17:27:09.290Z,13.53
2018-10-11T17:29:38.158Z,12.70
2018-10-11T17:32:07.299Z,12.60
2018-10-11T17:34:36.137Z,13.73
2018-10-11T17:37:05.035Z,13.77
2018-10-11T17:39:33.914Z,15.17
2018-10-11T17:42:02.786Z,13.20
2018-10-11T17:44:31.658Z,13.40
2018-10-11T17:47:00.438Z,14.20
2018-10-11T17:49:29.276Z,12.83
2018-10-11T17:51:58.084Z,14.27
2018-10-11T17:54:26.956Z,17.80
2018-10-11T17:56:55.858Z,12.87
2018-10-11T17:59:24.686Z,14.57
2018-10-11T18:01:53.607Z,16.13
2018-10-11T18:04:22.432Z,13.53
2018-10-11T18:06:51.343Z,12.30
2018-10-11T18:09:20.182Z,13.37
2018-10-11T18:11:48.996Z,13.00
2018-10-11T18:14:17.882Z,13.63
2018-10-11T18:16:46.756Z,14.87
2018-10-11T18:19:15.579Z,13.77
2018-10-11T18:21:44.506Z,14.43
2018-10-11T18:24:13.313Z,14.50
2018-10-11T18:26:42.090Z,13.97
2018-10-11T18:29:11.005Z,13.40
2018-10-11T18:31:39.750Z,13.20
2018-10-11T18:34:08.625Z,14.67
2018-10-11T18:36:37.430Z,13.40
2018-10-11T18:39:09.993Z,14.53
2018-10-11T18:41:41.178Z,13.97
2018-10-11T18:44:11.067Z,14.30
2018-10-11T18:46:39.929Z,14.53
2018-10-11T18:49:09.376Z,15.90
2018-10-11T18:51:38.150Z,18.33
2018-10-11T18:54:07.137Z,13.40
2018-10-11T18:56:35.950Z,12.93
2018-10-11T18:59:04.842Z,12.00
2018-10-11T19:01:33.629Z,13.43
2018-10-11T19:04:02.477Z,18.67
2018-10-11T19:06:31.696Z,12.97
2018-10-11T19:09:00.495Z,15.47
2018-10-11T19:11:29.408Z,13.90
2018-10-11T19:13:58.247Z,12.40
2018-10-11T19:16:27.010Z,12.47
2018-10-11T19:18:55.829Z,12.23
2018-10-11T19:21:24.628Z,14.83
2018-10-11T19:23:53.473Z,15.20
2018-10-11T19:26:22.346Z,13.40
2018-10-11T19:28:51.270Z,14.93
2018-10-11T19:31:20.108Z,13.67
2018-10-11T19:33:48.889Z,14.13
2018-10-11T19:36:17.762Z,14.70
2018-10-11T19:38:46.553Z,12.80
2018-10-11T19:41:15.477Z,12.90
2018-10-11T19:43:44.262Z,12.00
2018-10-11T19:46:13.520Z,11.70
2018-10-11T19:48:42.318Z,14.03
2018-10-11T19:51:11.226Z,12.30
2018-10-11T19:53:40.037Z,13.07
2018-10-11T19:56:08.865Z,13.23
2018-10-11T19:58:37.657Z,14.27
2018-10-11T20:01:06.694Z,13.70
2018-10-11T20:03:35.489Z,13.43
2018-10-11T20:06:04.308Z,12.90
2018-10-11T20:08:33.178Z,13.63
2018-10-11T20:11:01.923Z,13.43
2018-10-11T20:13:30.709Z,12.50
2018-10-11T20:15:59.625Z,12.43
2018-10-11T20:18:28.497Z,12.23
2018-10-11T20:20:57.531Z,12.60
2018-10-11T20:23:26.397Z,12.40
2018-10-11T20:25:55.296Z,13.13
2018-10-11T20:28:24.152Z,13.47
2018-10-11T20:30:53.230Z,15.33
2018-10-11T20:33:22.096Z,15.20
2018-10-11T20:35:50.887Z,12.00
2018-10-11T20:38:19.670Z,11.97
2018-10-11T20:40:48.522Z,13.43
2018-10-11T20:43:17.674Z,16.27
2018-10-11T20:45:46.542Z,11.23
2018-10-11T20:48:15.373Z,12.60
2018-10-11T20:50:45.022Z,11.57
2018-10-11T20:53:13.860Z,12.57
2018-10-11T20:55:42.807Z,14.20
2018-10-11T20:58:11.748Z,14.67
2018-10-11T21:00:40.594Z,11.80
2018-10-11T21:03:09.494Z,13.53
2018-10-11T21:05:38.568Z,11.73
2018-10-11T21:08:07.370Z,11.27
2018-10-11T21:10:36.263Z,13.23
2018-10-11T21:13:05.281Z,12.97
2018-10-11T21:15:34.143Z,14.00
2018-10-11T21:18:02.938Z,11.20
2018-10-11T21:20:31.957Z,13.97
2018-10-11T21:23:00.585Z,11.70
2018-10-11T21:25:29.390Z,13.20
2018-10-11T21:27:58.182Z,12.70
2018-10-11T21:30:26.979Z,12.20
2018-10-11T21:32:55.906Z,10.17
2018-10-11T21:35:24.678Z,11.23
2018-10-11T21:37:53.647Z,11.87
2018-10-11T21:40:22.592Z,13.60
2018-10-11T21:42:51.367Z,10.50
2018-10-11T21:45:20.267Z,10.83
2018-10-11T21:47:49.107Z,11.63
2018-10-11T21:50:17.911Z,10.60
2018-10-11T21:52:47.233Z,13.43
2018-10-11T21:55:16.016Z,11.90
2018-10-11T21:57:44.812Z,11.10
2018-10-11T22:00:13.602Z,11.27
2018-10-11T22:02:42.505Z,10.10
2018-10-11T22:05:11.559Z,11.83
2018-10-11T22:07:40.348Z,12.77
2018-10-11T22:10:09.194Z,10.53
2018-10-11T22:12:38.258Z,10.70
2018-10-11T22:15:07.270Z,16.57
2018-10-11T22:17:35.923Z,12.63
2018-10-11T22:20:05.197Z,11.07
2018-10-11T22:22:34.078Z,10.23
2018-10-11T22:25:02.907Z,11.33
2018-10-11T22:27:31.676Z,13.80
2018-10-11T22:30:00.494Z,11.23
2018-10-11T22:32:29.269Z,10.30
2018-10-11T22:34:58.381Z,10.87
2018-10-11T22:37:27.151Z,12.30
2018-10-11T22:39:55.976Z,11.50
2018-10-11T22:42:24.980Z,12.13
2018-10-11T22:44:53.810Z,12.90
2018-10-11T22:47:22.821Z,10.30
2018-10-11T22:49:51.628Z,12.20
2018-10-11T22:52:20.455Z,11.40
2018-10-11T22:54:49.258Z,11.90
2018-10-11T22:57:18.063Z,11.13
2018-10-11T22:59:46.974Z,10.63
2018-10-11T23:02:15.805Z,12.37
2018-10-11T23:04:44.636Z,14.67
2018-10-11T23:07:13.448Z,10.97
2018-10-11T23:09:42.360Z,8.93
2018-10-11T23:12:11.139Z,10.50
2018-10-11T23:14:40.010Z,12.00
2018-10-11T23:17:08.780Z,11.77
2018-10-11T23:19:37.598Z,12.07
2018-10-11T23:22:06.486Z,12.07
2018-10-11T23:24:35.306Z,9.87
2018-10-11T23:27:04.177Z,10.90
2018-10-11T23:29:33.000Z,12.10
2018-10-11T23:32:02.243Z,12.33
2018-10-11T23:34:31.089Z,11.57
2018-10-11T23:36:59.999Z,11.20
2018-10-11T23:39:28.802Z,10.60
2018-10-11T23:41:57.715Z,9.60
2018-10-11T23:44:26.536Z,11.17
2018-10-11T23:46:55.330Z,10.50
2018-10-11T23:49:24.165Z,12.70
2018-10-11T23:51:53.004Z,11.93
2018-10-11T23:54:21.826Z,13.20
2018-10-11T23:56:50.660Z,14.60
2018-10-11T23:59:19.502Z,14.03
